Aeroporto :
LOGIN :

Iscrizione | Disclaimer

   EN    FR    IT 

 










Sommario :    VFR   VFR Marginale   IFR   IFR Intensivo   IFR Molto Intensivo
Visibilità : 
Base nubi : 
>= 8 km
>= 3000ft
5 / 8 km
1000 / 3000 ft
1500m / 5 km
500 / 1000 ft
800 / 1500m
200 / 500 ft
< 800m
< 200 ft
Simboli :   Temporali  Nebbia  Neve Forte  Precipitazioni Forti  Vento > 20 kt
SIGMETs :   Varie  Temporali  Ghiacco  Turbolenza  Onda orograficha  Ceneri Vulcaniche






- Altitudine del aeroporto : 39 ft


ETNH - Hohn AB

ULTIMO METAR :
  • 010820Z 09003KT 2000 BR OVC001 04/03 Q1013 RED YLO TEMPO RED

METARs OBSOLETI :
  • 010811Z 09003KT 2000 BR OVC001 04/03 Q1012 RED YLO TEMPO RED
  • 010720Z 09005KT 1000 -DZ BR OVC000 04/03 Q1011 RED YLO TEMPO RED
  • 010650Z 11003KT 1000 -DZRA BR OVC001 04/03 Q1011 RED YLO TEMPO RED
  • 010620Z 11003KT 2500 -DZRA BR OVC001 04/03 Q1011 RED YLO TEMPO RED

TAF TAF ETNH
Valido dal 01 a 06 ore il 01 a 18 ore UTC


010520Z 0106/0118 10004KT 4000 -DZRA SCT003 BKN005
TEMPO 0106/0110 08005KT 0500 DZRA OVC001
TEMPO 0112/0118 06007KT 6000 NSW SCT005 BKN010 BY ETGL



MetMap, La meteo Aeronautica in un colpo d'occhio ! - Copyright ORBIFLY Dicembre 2007 - Disclaimer

ORBIFLY MET'MAP TEAM :

Programmazione e sviluppo : Alexandra Zaïnal
Concezione : Baudouin d'Aumeries
Aiuto per la programmazione : Marc-Olivier Méhu
Supporto tecnico e logistico : Manuel Goepfert
Aiuto per la traduzione : Arnaldo La Scala

Contatto : metmap@orbifly.com




FONTI E CREDITI :

   NOAA